Time;durP1;ratioP1;P1;durP2;ratioP2;P2;SDS_P1;SDS_P2;PMS_P1;PMS_P2;Temp;Humidity;BMP_temperature;BMP_pressure;BME280_temperature;BME280_humidity;BME280_pressure;Samples;Min_cycle;Max_cycle;Signal;HPM_P1;HPM_P2
2022/03/04 03:58:31;;;;;;;75.88;29.15;;;0.00;99.90;;;;;;4972427;29;20050;-89
2022/03/04 04:00:58;;;;;;;77.45;28.98;;;0.00;99.90;;;;;;4976521;28;20031;-89
2022/03/04 04:03:24;;;;;;;85.75;29.98;;;0.00;99.90;;;;;;4980292;28;20025;-88
2022/03/04 04:05:50;;;;;;;89.50;31.08;;;0.00;99.90;;;;;;4946018;28;20099;-89
2022/03/04 04:08:16;;;;;;;83.07;30.42;;;-0.10;99.90;;;;;;4976664;28;20025;-90
2022/03/04 04:10:42;;;;;;;77.47;28.35;;;-0.10;99.90;;;;;;4980475;28;20039;-89
2022/03/04 04:13:08;;;;;;;83.68;29.75;;;-0.10;99.90;;;;;;4977881;28;20019;-88
2022/03/04 04:15:36;;;;;;;81.15;28.77;;;-0.10;99.90;;;;;;4996394;28;20098;-90
2022/03/04 04:18:02;;;;;;;72.40;26.05;;;-0.10;99.90;;;;;;4983510;28;20043;-88
2022/03/04 04:20:28;;;;;;;80.72;29.00;;;-0.10;99.90;;;;;;4999611;28;20042;-89
2022/03/04 04:22:54;;;;;;;76.25;27.65;;;-0.10;99.90;;;;;;4988768;28;20034;-90
2022/03/04 04:25:21;;;;;;;70.88;26.70;;;-0.10;99.90;;;;;;4989236;28;20027;-88
2022/03/04 04:27:47;;;;;;;78.68;28.42;;;-0.10;99.90;;;;;;4981324;28;20038;-88
2022/03/04 04:30:14;;;;;;;69.30;27.75;;;-0.10;99.90;;;;;;4998994;28;20053;-87
2022/03/04 04:32:40;;;;;;;78.55;28.92;;;-0.20;99.90;;;;;;4983384;28;20010;-89
2022/03/04 04:35:07;;;;;;;80.43;29.80;;;-0.10;99.90;;;;;;4983362;28;20045;-88
2022/03/04 04:37:33;;;;;;;84.50;29.95;;;-0.20;99.90;;;;;;4999573;28;20042;-88
2022/03/04 04:39:59;;;;;;;79.68;30.35;;;-0.20;99.90;;;;;;4983623;28;20049;-89
2022/03/04 04:42:25;;;;;;;89.45;32.70;;;-0.20;99.90;;;;;;4967284;28;20019;-89
2022/03/04 04:44:51;;;;;;;92.10;31.92;;;-0.10;99.90;;;;;;4983109;28;20046;-88
2022/03/04 04:47:20;;;;;;;89.05;31.65;;;-0.10;99.90;;;;;;5015122;28;20010;-90
2022/03/04 04:49:46;;;;;;;91.03;33.25;;;-0.10;99.90;;;;;;4978630;28;20041;-90
2022/03/04 04:52:38;;;;;;;93.18;31.75;;;-0.10;99.90;;;;;;4987316;28;20027;-89
2022/03/04 04:58:00;;;;;;;94.43;31.67;;;-0.10;99.90;;;;;;5024593;28;20057;-90
2022/03/04 05:00:42;;;;;;;81.43;29.63;;;0.00;99.90;;;;;;5020582;28;20110;-88
2022/03/04 05:03:20;;;;;;;91.10;31.63;;;0.00;99.90;;;;;;5020355;28;20065;-90
2022/03/04 05:05:46;;;;;;;93.40;31.60;;;0.00;99.90;;;;;;5036529;28;20022;-89
2022/03/04 05:08:12;;;;;;;86.50;31.05;;;0.10;99.90;;;;;;5054638;28;20037;-89
2022/03/04 05:10:38;;;;;;;82.80;31.50;;;0.10;99.90;;;;;;5019777;28;20097;-91
2022/03/04 05:13:07;;;;;;;87.40;31.05;;;0.20;99.90;;;;;;5012194;28;20022;-90
2022/03/04 05:15:33;;;;;;;84.22;29.60;;;0.20;99.90;;;;;;5026186;28;20092;-90
2022/03/04 05:17:59;;;;;;;82.18;30.33;;;0.20;99.90;;;;;;5024493;28;20026;-89
2022/03/04 05:20:25;;;;;;;92.88;30.83;;;0.20;99.90;;;;;;5024353;28;20044;-88
2022/03/04 05:22:52;;;;;;;85.93;30.65;;;0.30;99.90;;;;;;5006268;28;20382;-89
2022/03/04 05:25:18;;;;;;;81.18;30.65;;;0.30;99.90;;;;;;5001959;28;20026;-91
2022/03/04 05:27:45;;;;;;;83.72;30.42;;;0.30;99.90;;;;;;5036187;28;20759;-90
2022/03/04 05:30:12;;;;;;;92.65;32.35;;;0.40;99.90;;;;;;5015936;28;20014;-90
2022/03/04 05:32:38;;;;;;;96.57;33.88;;;0.40;99.90;;;;;;5019870;28;20036;-89
2022/03/04 05:35:04;;;;;;;92.35;33.13;;;0.40;99.90;;;;;;5018469;28;20037;-90
2022/03/04 05:37:31;;;;;;;89.82;33.03;;;0.50;99.90;;;;;;5037461;28;20048;-88
2022/03/04 05:40:11;;;;;;;95.10;33.40;;;0.50;99.90;;;;;;5021050;28;20029;-90
2022/03/04 05:42:37;;;;;;;97.90;32.88;;;0.60;99.90;;;;;;5020840;28;20066;-88
2022/03/04 05:45:04;;;;;;;92.00;32.63;;;0.60;99.90;;;;;;5052308;28;20088;-88
2022/03/04 05:47:30;;;;;;;92.82;33.17;;;0.70;99.90;;;;;;5019422;28;20030;-88
2022/03/04 05:49:55;;;;;;;90.43;32.97;;;0.70;99.90;;;;;;5053290;28;20044;-89
2022/03/04 05:52:23;;;;;;;98.15;32.88;;;0.70;99.90;;;;;;5053437;28;20041;-89
2022/03/04 05:54:49;;;;;;;90.68;32.58;;;0.70;99.90;;;;;;5039465;28;20053;-88
2022/03/04 05:57:15;;;;;;;88.30;31.05;;;0.70;99.90;;;;;;5017463;28;20022;-91
2022/03/04 05:59:42;;;;;;;89.75;29.80;;;0.70;99.90;;;;;;5030497;28;20057;-89
2022/03/04 06:02:10;;;;;;;86.25;29.63;;;0.70;99.90;;;;;;5034603;28;20102;-91
2022/03/04 06:04:36;;;;;;;83.35;28.67;;;0.70;99.90;;;;;;5017697;28;20033;-88
2022/03/04 06:07:02;;;;;;;81.78;29.33;;;0.70;99.90;;;;;;5021882;28;20026;-88
2022/03/04 06:09:28;;;;;;;89.10;30.48;;;0.70;99.90;;;;;;5025678;28;20104;-88
2022/03/04 06:11:55;;;;;;;77.53;27.60;;;0.70;99.90;;;;;;5041929;28;20069;-87
2022/03/04 06:14:21;;;;;;;84.00;27.80;;;0.70;99.90;;;;;;5039481;28;20094;-87
2022/03/04 06:16:47;;;;;;;76.65;27.63;;;0.70;99.90;;;;;;5034843;28;20030;-89
2022/03/04 06:19:13;;;;;;;86.25;28.48;;;0.80;99.90;;;;;;5020272;28;20048;-89
2022/03/04 06:21:39;;;;;;;75.57;28.33;;;0.80;99.90;;;;;;5041370;28;20105;-88
2022/03/04 06:24:05;;;;;;;78.70;26.38;;;0.80;99.90;;;;;;5030975;28;20014;-90
2022/03/04 06:26:32;;;;;;;80.65;28.10;;;0.80;99.90;;;;;;5041403;28;20025;-89
2022/03/04 06:29:00;;;;;;;85.80;27.60;;;0.80;99.90;;;;;;5019445;28;20042;-87
2022/03/04 06:31:28;;;;;;;67.25;25.27;;;0.90;99.90;;;;;;5023486;28;20011;-86
2022/03/04 06:33:54;;;;;;;78.00;27.30;;;0.90;99.90;;;;;;5039874;28;20052;-89
2022/03/04 06:36:20;;;;;;;82.40;27.95;;;0.90;99.90;;;;;;5041021;28;20018;-89
2022/03/04 06:38:46;;;;;;;73.97;24.77;;;0.90;99.90;;;;;;5041225;28;20018;-88
2022/03/04 06:41:13;;;;;;;85.30;25.90;;;0.90;99.90;;;;;;5024343;28;20114;-88
2022/03/04 06:43:40;;;;;;;67.80;24.83;;;1.00;99.90;;;;;;5040794;28;20014;-88
2022/03/04 06:46:07;;;;;;;69.40;24.48;;;1.00;99.90;;;;;;5040829;28;20883;-88
2022/03/04 06:48:33;;;;;;;71.80;26.52;;;1.00;99.90;;;;;;5024717;28;20045;-87
2022/03/04 06:50:59;;;;;;;74.38;25.23;;;1.10;99.90;;;;;;5040933;28;20055;-89
2022/03/04 06:53:26;;;;;;;72.65;24.63;;;1.10;99.90;;;;;;5040943;28;20034;-87
2022/03/04 06:55:52;;;;;;;73.07;25.15;;;1.20;99.90;;;;;;5040585;28;20025;-87
2022/03/04 06:58:18;;;;;;;71.10;24.23;;;1.20;99.90;;;;;;5041014;28;20114;-89
2022/03/04 07:00:45;;;;;;;64.70;23.15;;;1.20;99.90;;;;;;5040135;28;20033;-88
2022/03/04 07:03:11;;;;;;;67.53;23.52;;;1.20;99.90;;;;;;5039785;28;20038;-88
2022/03/04 07:05:38;;;;;;;64.05;23.55;;;1.20;99.90;;;;;;5023764;28;20026;-87
2022/03/04 07:08:11;;;;;;;64.00;23.50;;;1.30;99.90;;;;;;5040089;28;20044;-89
2022/03/04 07:10:39;;;;;;;63.55;22.35;;;1.30;99.90;;;;;;5039879;28;20030;-88
2022/03/04 07:13:06;;;;;;;63.17;23.63;;;1.40;99.90;;;;;;5023441;28;20018;-90
2022/03/04 07:15:32;;;;;;;61.42;20.63;;;1.40;99.90;;;;;;5023906;28;20037;-89
2022/03/04 07:17:58;;;;;;;63.17;21.42;;;1.30;99.90;;;;;;5007487;28;20122;-90
2022/03/04 07:20:24;;;;;;;69.30;22.80;;;1.40;99.90;;;;;;5022761;28;20021;-89
2022/03/04 07:22:50;;;;;;;67.47;21.38;;;1.40;99.90;;;;;;5023761;28;20104;-89
2022/03/04 07:25:16;;;;;;;63.05;22.42;;;1.40;99.90;;;;;;5040349;28;20022;-89
2022/03/04 07:27:43;;;;;;;60.47;22.42;;;1.50;99.90;;;;;;5023567;28;20252;-87
2022/03/04 07:30:13;;;;;;;61.20;22.17;;;1.50;99.90;;;;;;5039644;28;20026;-89
2022/03/04 07:32:40;;;;;;;61.08;21.33;;;1.50;99.90;;;;;;5040237;28;20044;-89
2022/03/04 07:35:08;;;;;;;59.95;20.80;;;1.60;99.90;;;;;;5039620;28;20017;-89
2022/03/04 07:37:35;;;;;;;59.67;21.20;;;1.60;99.90;;;;;;5040139;28;20018;-89
2022/03/04 07:40:04;;;;;;;66.25;22.65;;;1.60;99.90;;;;;;5039470;28;20018;-88
2022/03/04 07:42:31;;;;;;;65.97;23.00;;;1.70;99.90;;;;;;5039501;28;20018;-89
2022/03/04 07:44:57;;;;;;;71.57;24.25;;;1.80;99.90;;;;;;5038841;28;20025;-89
2022/03/04 07:47:24;;;;;;;82.45;24.98;;;1.80;99.90;;;;;;5040247;28;20018;-89
2022/03/04 07:49:49;;;;;;;75.95;26.48;;;1.80;99.90;;;;;;5039120;28;20014;-87
2022/03/04 07:52:15;;;;;;;70.20;25.25;;;1.80;99.90;;;;;;5023351;28;20014;-88
2022/03/04 07:54:42;;;;;;;67.07;26.08;;;1.90;99.90;;;;;;5040020;28;20022;-88
2022/03/04 07:57:08;;;;;;;74.70;25.92;;;2.00;99.90;;;;;;5039127;28;20029;-89
2022/03/04 07:59:34;;;;;;;74.78;24.65;;;2.10;99.90;;;;;;5023140;28;20025;-87
2022/03/04 08:02:01;;;;;;;64.20;24.98;;;2.20;99.90;;;;;;5039455;28;20061;-87
2022/03/04 08:04:27;;;;;;;58.88;23.40;;;2.30;99.90;;;;;;5022880;28;20014;-88
2022/03/04 08:06:53;;;;;;;72.03;25.20;;;2.30;99.90;;;;;;5012453;28;20014;-88
2022/03/04 08:09:21;;;;;;;72.90;24.13;;;2.40;99.90;;;;;;5019094;28;20097;-90
2022/03/04 08:11:49;;;;;;;64.55;24.38;;;2.60;99.90;;;;;;5019114;28;20042;-91
2022/03/04 08:14:15;;;;;;;67.18;24.13;;;2.70;99.90;;;;;;5019475;28;20041;-88
2022/03/04 08:16:42;;;;;;;67.28;24.08;;;2.90;99.90;;;;;;5019229;28;20217;-89
2022/03/04 08:19:08;;;;;;;67.13;24.45;;;3.00;99.80;;;;;;5019829;28;20015;-90
2022/03/04 08:21:34;;;;;;;69.47;25.25;;;3.10;99.70;;;;;;5022643;28;20006;-89
2022/03/04 08:23:59;;;;;;;66.70;24.77;;;3.40;99.10;;;;;;5038564;28;20028;-90
2022/03/04 08:26:27;;;;;;;62.03;23.38;;;3.60;98.70;;;;;;5022045;28;20018;-89
2022/03/04 08:28:53;;;;;;;61.83;22.80;;;3.80;98.20;;;;;;5039209;28;20033;-91
2022/03/04 08:31:19;;;;;;;57.28;23.70;;;3.80;97.60;;;;;;5038615;28;20025;-89
2022/03/04 08:33:45;;;;;;;59.95;23.27;;;3.70;97.60;;;;;;5021867;28;20010;-89
2022/03/04 08:36:13;;;;;;;59.33;22.73;;;3.70;97.50;;;;;;5022431;28;20010;-90
2022/03/04 08:38:41;;;;;;;56.17;22.23;;;3.80;97.50;;;;;;5022289;28;20073;-89
2022/03/04 08:41:08;;;;;;;61.35;24.13;;;3.90;97.20;;;;;;5038412;28;20033;-90
2022/03/04 08:43:34;;;;;;;51.67;22.25;;;4.00;96.80;;;;;;5022015;28;20025;-89
2022/03/04 08:46:02;;;;;;;52.25;21.63;;;4.10;96.80;;;;;;5038021;28;20125;-88
2022/03/04 08:48:28;;;;;;;58.10;21.38;;;4.10;96.10;;;;;;5038945;28;20085;-90
2022/03/04 08:50:55;;;;;;;51.80;22.00;;;4.20;95.90;;;;;;5038251;28;20089;-90
2022/03/04 08:53:21;;;;;;;57.33;21.70;;;4.10;96.00;;;;;;5038569;28;20022;-91
2022/03/04 08:55:47;;;;;;;63.28;23.23;;;4.30;95.80;;;;;;5005594;28;20114;-89
2022/03/04 08:58:13;;;;;;;53.70;21.85;;;4.30;95.50;;;;;;5038359;28;20030;-89
2022/03/04 09:00:39;;;;;;;56.35;21.70;;;4.70;95.30;;;;;;5038063;28;20053;-89
2022/03/04 09:03:05;;;;;;;54.92;21.85;;;5.00;94.60;;;;;;5021703;28;20022;-89
2022/03/04 09:05:31;;;;;;;52.97;21.05;;;5.00;94.30;;;;;;5038596;28;20018;-91
2022/03/04 09:07:58;;;;;;;51.28;21.67;;;5.20;94.00;;;;;;5037828;28;20018;-89
2022/03/04 09:10:24;;;;;;;51.42;22.23;;;5.70;93.50;;;;;;5038905;28;20060;-90
2022/03/04 09:12:49;;;;;;;54.15;22.98;;;6.80;92.40;;;;;;5021864;28;20060;-91
2022/03/04 09:15:18;;;;;;;54.90;23.25;;;7.50;90.80;;;;;;5021546;28;20025;-91
2022/03/04 09:17:44;;;;;;;64.95;24.05;;;8.20;89.00;;;;;;5005208;28;20018;-90
2022/03/04 09:20:11;;;;;;;57.03;25.80;;;8.80;86.50;;;;;;5021521;28;20033;-89
2022/03/04 09:22:37;;;;;;;61.70;24.58;;;8.70;83.50;;;;;;5038723;28;20007;-89
2022/03/04 09:25:04;;;;;;;63.15;26.00;;;8.10;84.50;;;;;;5021768;28;20098;-91
2022/03/04 09:27:30;;;;;;;53.53;24.02;;;7.90;84.90;;;;;;5037894;28;20022;-91
2022/03/04 09:29:56;;;;;;;71.43;25.38;;;7.90;85.00;;;;;;5038059;28;20029;-89
2022/03/04 09:32:23;;;;;;;71.30;24.17;;;8.60;83.60;;;;;;5021347;28;20026;-91
2022/03/04 09:34:49;;;;;;;62.20;25.75;;;8.70;82.40;;;;;;5038504;28;20045;-91
2022/03/04 09:37:15;;;;;;;67.75;26.50;;;9.40;80.80;;;;;;5037133;28;20018;-91
2022/03/04 09:39:41;;;;;;;54.55;23.90;;;10.00;78.60;;;;;;5037730;28;20026;-90
2022/03/04 09:42:07;;;;;;;62.10;26.17;;;10.90;76.60;;;;;;5036832;28;20041;-90
2022/03/04 09:44:34;;;;;;;66.72;25.77;;;11.00;74.70;;;;;;5037374;28;20014;-91
2022/03/04 09:47:01;;;;;;;60.90;24.30;;;11.20;74.40;;;;;;5037499;28;20043;-90
2022/03/04 09:49:36;;;;;;;54.30;26.15;;;11.80;73.10;;;;;;5037784;28;20065;-91
2022/03/04 09:52:03;;;;;;;50.35;24.40;;;12.60;71.00;;;;;;5020818;28;20037;-89
2022/03/04 09:54:30;;;;;;;53.88;24.67;;;13.90;67.80;;;;;;5037626;28;20014;-90
2022/03/04 09:56:58;;;;;;;47.35;23.48;;;14.70;65.00;;;;;;5048838;23;20044;-87
2022/03/04 09:59:24;;;;;;;51.25;24.33;;;14.50;63.50;;;;;;5060036;28;20017;-85
2022/03/04 10:01:52;;;;;;;50.08;24.67;;;14.30;63.00;;;;;;5060262;28;20013;-84
2022/03/04 10:04:18;;;;;;;50.90;23.40;;;14.80;62.30;;;;;;5060302;28;20017;-84
2022/03/04 10:06:49;;;;;;;53.15;23.95;;;15.60;60.80;;;;;;5067132;28;20024;-83
2022/03/04 10:09:36;;;;;;;51.97;24.10;;;16.20;60.00;;;;;;5097505;28;20084;-86
2022/03/04 10:12:04;;;;;;;49.03;23.58;;;17.00;57.80;;;;;;5080656;28;20027;-86
2022/03/04 10:14:31;;;;;;;47.00;23.40;;;17.10;56.70;;;;;;5080550;28;20021;-84
2022/03/04 10:16:58;;;;;;;50.83;26.00;;;16.60;56.50;;;;;;5080411;28;20059;-87
2022/03/04 10:19:24;;;;;;;49.13;24.33;;;16.50;56.70;;;;;;5097840;28;20013;-87
2022/03/04 10:21:53;;;;;;;49.10;25.15;;;16.10;56.90;;;;;;5063634;28;20008;-89
2022/03/04 10:24:27;;;;;;;46.75;23.73;;;15.00;57.90;;;;;;5080011;28;20025;-86
2022/03/04 10:27:02;;;;;;;47.17;22.85;;;13.80;59.10;;;;;;5096947;28;20024;-87
2022/03/04 10:29:30;;;;;;;46.15;23.88;;;12.60;60.90;;;;;;5097327;28;20039;-87
2022/03/04 10:32:14;;;;;;;52.15;22.77;;;11.50;62.80;;;;;;5096362;28;20024;-87
2022/03/04 10:34:43;;;;;;;52.35;24.25;;;10.30;64.50;;;;;;5097441;28;20046;-85
2022/03/04 10:37:10;;;;;;;51.33;22.40;;;9.60;66.60;;;;;;5096387;28;20016;-84
2022/03/04 10:39:36;;;;;;;45.65;21.95;;;9.20;67.80;;;;;;5079694;28;20040;-85
2022/03/04 10:42:02;;;;;;;47.50;21.95;;;8.70;69.00;;;;;;5092768;28;20028;-86
2022/03/04 10:44:29;;;;;;;46.70;21.23;;;8.30;69.80;;;;;;5093946;28;20020;-85
2022/03/04 10:46:57;;;;;;;48.75;20.17;;;8.10;70.50;;;;;;5094807;28;20084;-85
2022/03/04 10:49:25;;;;;;;52.30;20.27;;;7.70;71.90;;;;;;5096185;28;20032;-88
2022/03/04 10:52:09;;;;;;;50.05;20.45;;;7.60;72.20;;;;;;5078499;28;20096;-86
2022/03/04 10:54:35;;;;;;;46.30;21.45;;;7.60;72.10;;;;;;5080663;28;20036;-86
2022/03/04 10:57:03;;;;;;;46.67;19.35;;;7.50;71.90;;;;;;5079213;28;20086;-86
2022/03/04 10:59:29;;;;;;;43.40;19.42;;;7.60;72.40;;;;;;5097657;28;20029;-86
2022/03/04 11:01:55;;;;;;;45.55;18.90;;;7.80;72.00;;;;;;5096594;28;20084;-86
2022/03/04 11:04:22;;;;;;;41.80;18.70;;;7.80;71.80;;;;;;5086730;28;20388;-87
2022/03/04 11:06:49;;;;;;;45.30;19.02;;;7.80;72.10;;;;;;5086608;28;20068;-85
2022/03/04 11:09:16;;;;;;;41.13;17.42;;;7.70;72.40;;;;;;5076848;28;20047;-87
2022/03/04 11:11:44;;;;;;;45.15;18.73;;;7.70;72.80;;;;;;5096245;28;20036;-88
2022/03/04 11:14:13;;;;;;;41.17;18.05;;;8.10;71.90;;;;;;5088282;28;20032;-88
2022/03/04 11:16:40;;;;;;;44.10;18.90;;;8.20;71.50;;;;;;5073936;28;20024;-86
2022/03/04 11:19:10;;;;;;;42.70;18.27;;;8.00;71.90;;;;;;5091885;28;20035;-87
2022/03/04 11:21:36;;;;;;;38.80;18.27;;;7.80;72.70;;;;;;5090643;28;20025;-87
2022/03/04 11:24:02;;;;;;;40.70;17.20;;;7.60;73.10;;;;;;5091907;28;20024;-89
2022/03/04 11:26:31;;;;;;;42.72;17.63;;;7.50;74.10;;;;;;5091572;28;20072;-88
2022/03/04 11:29:00;;;;;;;45.70;17.52;;;7.50;74.90;;;;;;5073533;28;20020;-86
2022/03/04 11:31:29;;;;;;;36.35;17.50;;;7.50;74.50;;;;;;5090843;28;20047;-86
2022/03/04 11:34:00;;;;;;;40.80;18.17;;;7.40;74.40;;;;;;5093181;28;20048;-85
2022/03/04 11:36:27;;;;;;;38.97;17.35;;;7.30;74.40;;;;;;5088518;28;20017;-83
2022/03/04 11:38:56;;;;;;;42.20;17.38;;;7.50;73.90;;;;;;5093923;28;20016;-85
2022/03/04 11:41:25;;;;;;;41.42;18.20;;;7.70;73.30;;;;;;5054359;28;20025;-84
2022/03/04 11:43:56;;;;;;;44.78;18.08;;;7.90;73.50;;;;;;5092711;28;20016;-86
2022/03/04 11:46:25;;;;;;;43.47;18.10;;;7.90;73.30;;;;;;5071332;28;20033;-85
2022/03/04 11:49:29;;;;;;;36.80;16.23;;;7.90;74.50;;;;;;5069990;28;20020;-87
2022/03/04 11:52:19;;;;;;;43.60;19.00;;;8.00;73.50;;;;;;5090035;28;20036;-84
2022/03/04 11:54:53;;;;;;;48.72;18.55;;;7.90;73.90;;;;;;5056106;28;20017;-84
2022/03/04 11:57:23;;;;;;;47.08;19.05;;;7.90;74.30;;;;;;5090797;28;20024;-85
2022/03/04 12:00:10;;;;;;;40.80;19.30;;;8.20;73.60;;;;;;5074926;28;20024;-87
2022/03/04 12:02:44;;;;;;;41.63;19.00;;;8.40;73.20;;;;;;5072401;28;20029;-85
2022/03/04 12:05:17;;;;;;;40.60;20.07;;;8.10;74.00;;;;;;5074028;28;20029;-85
2022/03/04 12:07:50;;;;;;;38.17;18.75;;;8.00;73.50;;;;;;5069746;28;20032;-85
2022/03/04 12:10:29;;;;;;;42.40;18.85;;;8.40;73.20;;;;;;5095094;28;20059;-84
2022/03/04 12:13:10;;;;;;;44.20;18.27;;;9.90;70.40;;;;;;5079443;28;20025;-84
2022/03/04 12:15:39;;;;;;;38.63;19.27;;;12.30;66.30;;;;;;5094091;28;20040;-83
2022/03/04 12:18:16;;;;;;;33.90;18.23;;;14.00;63.30;;;;;;5097478;28;20034;-83
2022/03/04 12:20:56;;;;;;;40.70;19.25;;;13.80;61.20;;;;;;5091973;28;20033;-86
2022/03/04 12:23:33;;;;;;;34.38;18.23;;;13.00;62.20;;;;;;5095289;28;20032;-84
2022/03/04 12:26:06;;;;;;;36.83;17.55;;;11.90;63.30;;;;;;5075947;28;20024;-86
2022/03/04 12:28:50;;;;;;;34.03;17.33;;;12.10;64.10;;;;;;5073832;28;20073;-85
2022/03/04 12:31:24;;;;;;;30.73;16.25;;;13.50;61.90;;;;;;5095588;28;20032;-84
2022/03/04 12:33:59;;;;;;;31.60;17.35;;;15.60;58.50;;;;;;5078526;28;20021;-87
2022/03/04 12:36:32;;;;;;;29.20;16.30;;;16.70;56.60;;;;;;5095637;28;20021;-86
2022/03/04 12:39:03;;;;;;;30.17;16.83;;;17.30;55.30;;;;;;5096124;28;20016;-84
2022/03/04 12:41:31;;;;;;;28.55;16.02;;;17.50;54.10;;;;;;5098759;28;20027;-85
2022/03/04 12:44:05;;;;;;;30.15;16.80;;;18.00;53.20;;;;;;5081796;28;20060;-88
2022/03/04 12:46:35;;;;;;;29.92;15.70;;;17.50;53.20;;;;;;5081404;28;20036;-86
2022/03/04 12:49:01;;;;;;;25.80;13.73;;;16.20;54.00;;;;;;5096030;28;20055;-86
2022/03/04 12:51:28;;;;;;;23.50;13.52;;;14.80;55.20;;;;;;5077337;28;20081;-84
2022/03/04 12:53:59;;;;;;;23.88;12.82;;;13.90;56.70;;;;;;5090005;28;20032;-85
2022/03/04 12:56:26;;;;;;;22.23;12.15;;;13.20;57.70;;;;;;5080159;28;20021;-86
2022/03/04 12:58:54;;;;;;;20.00;11.60;;;12.60;57.90;;;;;;5098228;28;20028;-84
2022/03/04 13:01:22;;;;;;;20.98;12.23;;;12.00;59.40;;;;;;5080178;28;20025;-86
2022/03/04 13:03:50;;;;;;;23.08;12.80;;;11.50;60.10;;;;;;5097917;28;20012;-83
2022/03/04 13:06:19;;;;;;;23.75;11.70;;;11.10;61.20;;;;;;5097847;28;20024;-87
2022/03/04 13:08:51;;;;;;;26.23;12.05;;;10.80;62.50;;;;;;5097498;28;20063;-88
2022/03/04 13:11:21;;;;;;;25.73;12.50;;;10.40;63.70;;;;;;5080294;28;20012;-89
2022/03/04 13:13:53;;;;;;;27.52;12.70;;;9.90;64.70;;;;;;5098364;28;20036;-86
2022/03/04 13:16:22;;;;;;;22.73;11.60;;;9.50;65.30;;;;;;5097531;28;20107;-86
2022/03/04 13:18:48;;;;;;;24.80;11.90;;;9.20;66.20;;;;;;5080198;28;20077;-84
2022/03/04 13:21:15;;;;;;;26.42;12.30;;;8.90;66.30;;;;;;5097885;28;20037;-84
2022/03/04 13:23:51;;;;;;;31.13;12.10;;;8.50;67.10;;;;;;5098100;28;20039;-85
2022/03/04 13:26:21;;;;;;;22.65;11.27;;;8.30;67.80;;;;;;5097750;28;20028;-86
2022/03/04 13:28:55;;;;;;;21.90;10.88;;;8.10;68.50;;;;;;5080631;28;20031;-86
2022/03/04 13:31:26;;;;;;;;;;;8.10;69.30;;;;;;5064521;28;20028;-85
2022/03/04 13:34:06;;;;;;;22.90;11.60;;;8.20;69.80;;;;;;5080949;28;19900;-84
2022/03/04 13:36:50;;;;;;;25.42;11.15;;;8.60;69.60;;;;;;5080691;28;20043;-84
2022/03/04 13:39:25;;;;;;;29.05;11.60;;;8.90;69.00;;;;;;5098323;28;20023;-84
2022/03/04 13:42:06;;;;;;;24.38;10.43;;;9.00;68.20;;;;;;5064112;28;20017;-85
2022/03/04 13:44:33;;;;;;;21.98;11.05;;;9.20;68.10;;;;;;5098073;28;20013;-85
2022/03/04 13:47:04;;;;;;;16.95;9.25;;;9.20;67.80;;;;;;5097992;28;20004;-85
2022/03/04 13:49:46;;;;;;;18.50;9.93;;;9.00;66.30;;;;;;5080328;28;20162;-84
2022/03/04 13:52:13;;;;;;;17.73;8.55;;;8.70;67.00;;;;;;5097935;28;20040;-85
2022/03/04 13:55:05;;;;;;;20.40;9.73;;;8.50;67.60;;;;;;5097817;28;20021;-85
2022/03/04 13:57:37;;;;;;;18.15;8.75;;;8.30;68.20;;;;;;5078100;28;20112;-85
2022/03/04 14:00:12;;;;;;;19.75;8.63;;;8.20;68.60;;;;;;5097788;28;20013;-87
2022/03/04 14:02:50;;;;;;;18.90;8.75;;;8.10;69.50;;;;;;5080553;28;20037;-85
2022/03/04 14:05:29;;;;;;;16.05;7.53;;;7.70;70.40;;;;;;5109807;23;20040;-87
2022/03/04 14:08:12;;;;;;;21.52;8.07;;;7.40;70.40;;;;;;5117164;28;20052;-86
2022/03/04 14:10:43;;;;;;;19.70;8.55;;;7.20;71.20;;;;;;5100407;28;20039;-86
2022/03/04 14:13:12;;;;;;;15.73;7.60;;;7.00;71.50;;;;;;5116787;28;20031;-86
2022/03/04 14:15:40;;;;;;;14.98;7.90;;;7.10;72.10;;;;;;5083691;28;20079;-86
2022/03/04 14:18:09;;;;;;;16.33;7.82;;;7.10;72.60;;;;;;5100104;28;20036;-85
2022/03/04 14:20:36;;;;;;;15.90;8.10;;;7.30;72.80;;;;;;5117154;28;20024;-86
2022/03/04 14:23:04;;;;;;;16.77;8.27;;;7.40;72.80;;;;;;5117226;28;20032;-87
2022/03/04 14:25:29;;;;;;;16.80;7.93;;;7.50;72.30;;;;;;5114828;28;20062;-86
2022/03/04 14:27:55;;;;;;;14.98;8.02;;;7.40;72.30;;;;;;5112149;28;20036;-86
2022/03/04 14:30:29;;;;;;;17.60;8.20;;;7.40;72.60;;;;;;5117843;28;20008;-87
2022/03/04 14:32:56;;;;;;;13.43;7.25;;;7.30;71.80;;;;;;5115865;28;20025;-85
2022/03/04 14:35:26;;;;;;;16.42;7.28;;;7.20;72.00;;;;;;5108995;28;20029;-87
2022/03/04 14:37:52;;;;;;;14.30;7.07;;;7.20;72.20;;;;;;5097475;28;20039;-87
2022/03/04 14:40:19;;;;;;;16.67;8.27;;;7.10;72.50;;;;;;5077918;28;20028;-87
2022/03/04 14:42:47;;;;;;;15.73;7.97;;;7.30;72.20;;;;;;5093702;28;20028;-86
2022/03/04 14:45:13;;;;;;;17.50;7.88;;;7.30;72.40;;;;;;5098084;28;20021;-86
2022/03/04 14:47:42;;;;;;;14.77;7.65;;;7.30;72.40;;;;;;5097810;28;20047;-87
2022/03/04 14:50:10;;;;;;;19.98;9.02;;;7.30;72.40;;;;;;5097535;28;20011;-87
2022/03/04 14:52:36;;;;;;;18.90;7.93;;;7.20;72.30;;;;;;5098068;28;20028;-88
2022/03/04 14:55:04;;;;;;;13.02;7.63;;;7.10;72.60;;;;;;5098346;28;20044;-87
2022/03/04 14:57:32;;;;;;;16.33;7.35;;;7.00;72.80;;;;;;5104402;28;20035;-87
2022/03/04 14:59:58;;;;;;;19.90;8.73;;;6.90;73.00;;;;;;5102036;28;20013;-87
2022/03/04 15:02:25;;;;;;;17.15;7.45;;;6.90;72.80;;;;;;5098469;28;20040;-87
2022/03/04 15:04:51;;;;;;;15.35;7.78;;;6.80;71.80;;;;;;5098359;28;20055;-86
2022/03/04 15:07:18;;;;;;;15.50;7.15;;;6.80;71.70;;;;;;5100454;28;20025;-86
2022/03/04 15:09:44;;;;;;;14.18;7.38;;;6.80;72.00;;;;;;5100246;28;20017;-87
2022/03/04 15:12:12;;;;;;;15.10;7.40;;;6.90;72.30;;;;;;5082417;28;20037;-86
2022/03/04 15:14:39;;;;;;;14.15;7.50;;;6.90;72.30;;;;;;5100130;28;20031;-86
2022/03/04 15:17:06;;;;;;;13.95;7.53;;;6.80;72.90;;;;;;5099981;28;20027;-85
2022/03/04 15:19:34;;;;;;;16.70;7.32;;;6.70;73.80;;;;;;5093742;28;20028;-85
2022/03/04 15:22:02;;;;;;;11.80;6.35;;;6.60;72.90;;;;;;5095293;28;20067;-86
2022/03/04 15:24:28;;;;;;;14.10;6.82;;;6.50;72.90;;;;;;5092024;28;20090;-86
2022/03/04 15:26:56;;;;;;;15.32;6.85;;;6.50;73.30;;;;;;5055448;28;20555;-88
2022/03/04 15:29:22;;;;;;;13.00;6.75;;;6.40;72.40;;;;;;5073319;28;20028;-89
2022/03/04 15:31:49;;;;;;;15.73;7.80;;;6.50;72.40;;;;;;5091333;28;20024;-88
2022/03/04 15:34:15;;;;;;;15.57;7.47;;;6.50;72.50;;;;;;5078479;28;20046;-88
2022/03/04 15:36:41;;;;;;;13.63;6.30;;;6.50;73.10;;;;;;5108474;28;20020;-88
2022/03/04 15:39:07;;;;;;;12.60;6.32;;;6.60;73.30;;;;;;5110622;28;20028;-88
2022/03/04 15:41:33;;;;;;;13.15;6.70;;;6.50;73.00;;;;;;5112036;28;20036;-88
2022/03/04 15:44:02;;;;;;;15.48;6.53;;;6.50;73.30;;;;;;5097547;28;20029;-86
2022/03/04 15:46:29;;;;;;;12.48;6.38;;;6.50;73.40;;;;;;5093812;28;20032;-86
2022/03/04 15:48:55;;;;;;;13.68;6.80;;;6.50;73.40;;;;;;5107368;28;20040;-86
2022/03/04 15:51:20;;;;;;;11.05;6.07;;;6.40;73.50;;;;;;5089900;28;20032;-86
2022/03/04 15:53:49;;;;;;;12.80;6.50;;;6.30;73.50;;;;;;5079673;28;20008;-86
2022/03/04 15:56:16;;;;;;;17.08;7.05;;;6.30;73.90;;;;;;5109263;28;20048;-85
2022/03/04 15:58:42;;;;;;;13.40;6.35;;;6.20;73.80;;;;;;5161115;22;20044;-91
2022/03/04 16:01:08;;;;;;;11.90;6.60;;;6.20;73.60;;;;;;5097284;28;20059;-92
2022/03/04 16:03:36;;;;;;;13.45;6.07;;;6.20;73.00;;;;;;5098939;28;20024;-91
2022/03/04 16:06:05;;;;;;;13.68;6.03;;;6.20;72.80;;;;;;5097809;28;20028;-90
2022/03/04 16:08:32;;;;;;;12.45;6.75;;;6.20;72.80;;;;;;5081475;28;20033;-91
2022/03/04 16:10:58;;;;;;;12.63;6.13;;;6.10;73.50;;;;;;5076361;28;20092;-91
2022/03/04 16:13:24;;;;;;;15.38;7.38;;;6.00;74.50;;;;;;5057394;28;20024;-88
2022/03/04 16:15:51;;;;;;;15.48;6.90;;;5.90;75.90;;;;;;5056793;28;20143;-90
2022/03/04 16:18:17;;;;;;;14.57;6.93;;;5.80;76.80;;;;;;5074663;28;20025;-89
2022/03/04 16:20:43;;;;;;;16.88;7.70;;;5.80;77.90;;;;;;5081060;28;20017;-89
2022/03/04 16:23:09;;;;;;;16.88;7.40;;;5.70;78.80;;;;;;5081631;28;20071;-89
2022/03/04 16:25:35;;;;;;;14.43;6.90;;;5.60;79.40;;;;;;5081841;28;20040;-88
2022/03/04 16:28:02;;;;;;;17.05;7.13;;;5.60;80.00;;;;;;5082146;28;20112;-89
2022/03/04 16:30:31;;;;;;;18.35;7.32;;;5.50;80.20;;;;;;5080357;28;20074;-89
2022/03/04 16:32:58;;;;;;;16.60;8.00;;;5.40;80.40;;;;;;5098508;28;20031;-88
2022/03/04 16:35:25;;;;;;;16.77;7.20;;;5.40;81.00;;;;;;5078203;28;20043;-90
2022/03/04 16:37:52;;;;;;;17.63;7.22;;;5.40;81.70;;;;;;5077798;28;20385;-90
2022/03/04 16:40:18;;;;;;;15.45;6.88;;;5.30;81.90;;;;;;5077042;28;20115;-90
2022/03/04 16:42:44;;;;;;;22.30;8.15;;;5.30;82.20;;;;;;5075970;28;20039;-90
2022/03/04 16:45:10;;;;;;;17.67;8.07;;;5.30;82.80;;;;;;5078364;28;20039;-90